Time;durP1;ratioP1;P1;durP2;ratioP2;P2;SDS_P1;SDS_P2;PMS_P1;PMS_P2;Temp;Humidity;BMP_temperature;BMP_pressure;BME280_temperature;BME280_humidity;BME280_pressure;Samples;Min_cycle;Max_cycle;Signal;HPM_P1;HPM_P2
2021/07/20 00:00:37;;;;;;;6.90;5.50;;;;;;;;;;5075962;28;20369;-85
2021/07/20 00:03:06;;;;;;;6.60;5.35;;;;;;;;;;5076148;28;20417;-85
2021/07/20 00:05:32;;;;;;;10.27;6.03;;;;;;;;;;5075884;28;20376;-85
2021/07/20 00:08:02;;;;;;;6.72;5.60;;;;;;;;;;5076442;28;20390;-85
2021/07/20 00:10:29;;;;;;;11.20;5.75;;;;;;;;;;5094112;28;20408;-84
2021/07/20 00:12:56;;;;;;;8.75;6.10;;;;;;;;;;5076004;28;20376;-84
2021/07/20 00:15:22;;;;;;;9.18;5.70;;;;;;;;;;5093839;28;20386;-84
2021/07/20 00:17:49;;;;;;;9.70;5.88;;;;;;;;;;5075573;28;20396;-85
2021/07/20 00:20:16;;;;;;;7.55;5.43;;;;;;;;;;5075634;28;20434;-85
2021/07/20 00:22:42;;;;;;;6.78;5.45;;;;;;;;;;5076091;28;20368;-85
2021/07/20 00:25:09;;;;;;;8.82;5.25;;;;;;;;;;5076343;28;20372;-84
2021/07/20 00:27:35;;;;;;;7.47;5.18;;;;;;;;;;5094100;28;20364;-84
2021/07/20 00:30:01;;;;;;;9.95;5.20;;;;;;;;;;5075834;28;20386;-82
2021/07/20 00:32:27;;;;;;;6.95;5.00;;;;;;;;;;5094352;28;20931;-84
2021/07/20 00:34:53;;;;;;;5.63;4.85;;;;;;;;;;5093989;28;20380;-84
2021/07/20 00:37:19;;;;;;;7.82;5.20;;;;;;;;;;5093909;28;20364;-84
2021/07/20 00:39:45;;;;;;;8.37;5.40;;;;;;;;;;5075542;28;20445;-84
2021/07/20 00:42:11;;;;;;;11.77;5.93;;;;;;;;;;5093462;28;20371;-84
2021/07/20 00:44:37;;;;;;;7.37;5.43;;;;;;;;;;5075262;28;20440;-84
2021/07/20 00:47:03;;;;;;;8.13;5.45;;;;;;;;;;5093496;28;20445;-84
2021/07/20 00:49:29;;;;;;;12.83;5.60;;;;;;;;;;5075525;28;20727;-85
2021/07/20 00:51:55;;;;;;;7.10;5.43;;;;;;;;;;5093814;28;20375;-84
2021/07/20 00:54:21;;;;;;;5.63;5.13;;;;;;;;;;5075718;28;20376;-85
2021/07/20 00:56:47;;;;;;;9.52;5.15;;;;;;;;;;5075564;28;20483;-84
2021/07/20 00:59:14;;;;;;;7.07;5.38;;;;;;;;;;5075810;28;20887;-85
2021/07/20 01:01:40;;;;;;;6.20;5.15;;;;;;;;;;5093393;28;20376;-85
2021/07/20 01:04:06;;;;;;;6.45;5.30;;;;;;;;;;5075782;28;20388;-84
2021/07/20 01:06:34;;;;;;;9.43;5.60;;;;;;;;;;5075246;28;20377;-85
2021/07/20 01:09:04;;;;;;;9.73;5.57;;;;;;;;;;5075296;28;20395;-85
2021/07/20 01:11:30;;;;;;;7.25;5.35;;;;;;;;;;5074956;28;20426;-84
2021/07/20 01:13:57;;;;;;;7.90;5.65;;;;;;;;;;5074566;28;20368;-85
2021/07/20 01:16:24;;;;;;;7.72;5.60;;;;;;;;;;5074595;28;20368;-85
2021/07/20 01:18:50;;;;;;;7.17;5.27;;;;;;;;;;5092739;28;20392;-85
2021/07/20 01:21:17;;;;;;;6.82;5.07;;;;;;;;;;5075306;28;20402;-84
2021/07/20 01:23:45;;;;;;;7.95;5.70;;;;;;;;;;5093535;28;20379;-85
2021/07/20 01:26:12;;;;;;;8.35;5.60;;;;;;;;;;5074981;28;20391;-86
2021/07/20 01:28:39;;;;;;;7.88;5.40;;;;;;;;;;5093666;28;20382;-85
2021/07/20 01:31:07;;;;;;;7.50;5.90;;;;;;;;;;5092895;28;20460;-85
2021/07/20 01:33:34;;;;;;;7.45;5.68;;;;;;;;;;5093636;28;20411;-85
2021/07/20 01:36:01;;;;;;;5.82;5.10;;;;;;;;;;5075307;28;20480;-85
2021/07/20 01:38:28;;;;;;;8.18;5.78;;;;;;;;;;5092968;28;20912;-84
2021/07/20 01:40:56;;;;;;;6.95;5.40;;;;;;;;;;5074138;28;20376;-85
2021/07/20 01:43:23;;;;;;;5.93;5.33;;;;;;;;;;5092314;28;20923;-85
2021/07/20 01:45:50;;;;;;;6.85;5.72;;;;;;;;;;5074272;28;20459;-85
2021/07/20 01:48:17;;;;;;;6.68;5.50;;;;;;;;;;5093156;28;20365;-85
2021/07/20 01:50:44;;;;;;;6.50;5.50;;;;;;;;;;5074550;28;20813;-86
2021/07/20 01:53:10;;;;;;;7.65;5.45;;;;;;;;;;5075079;28;20455;-85
2021/07/20 01:55:37;;;;;;;9.97;5.40;;;;;;;;;;5074561;28;20420;-84
2021/07/20 01:58:03;;;;;;;7.22;5.40;;;;;;;;;;5074906;28;20785;-84
2021/07/20 02:00:29;;;;;;;6.35;5.30;;;;;;;;;;5074632;28;20410;-85
2021/07/20 02:03:13;;;;;;;6.05;5.45;;;;;;;;;;5092449;28;20417;-84
2021/07/20 02:08:29;;;;;;;7.20;6.03;;;;;;;;;;5092588;28;20471;-85
2021/07/20 02:11:03;;;;;;;6.30;5.38;;;;;;;;;;5075209;28;20447;-85
2021/07/20 02:13:38;;;;;;;6.50;5.82;;;;;;;;;;5079014;28;20373;-83
2021/07/20 02:16:04;;;;;;;10.10;6.40;;;;;;;;;;5102011;28;20460;-85
2021/07/20 02:18:30;;;;;;;7.78;6.07;;;;;;;;;;5100998;28;20427;-86
2021/07/20 02:20:56;;;;;;;6.15;5.63;;;;;;;;;;5080422;28;20368;-84
2021/07/20 02:23:24;;;;;;;9.15;6.05;;;;;;;;;;5074875;28;20402;-85
2021/07/20 02:25:50;;;;;;;6.83;5.50;;;;;;;;;;5074715;28;20890;-85
2021/07/20 02:28:19;;;;;;;6.63;5.55;;;;;;;;;;5091887;28;20373;-86
2021/07/20 02:30:45;;;;;;;9.57;6.68;;;;;;;;;;5073172;28;20356;-85
2021/07/20 02:33:11;;;;;;;7.30;5.80;;;;;;;;;;5075288;28;20896;-86
2021/07/20 02:35:37;;;;;;;9.05;5.38;;;;;;;;;;5074978;28;20380;-85
2021/07/20 02:38:04;;;;;;;6.47;5.82;;;;;;;;;;5074239;28;20469;-85
2021/07/20 02:40:30;;;;;;;7.40;5.78;;;;;;;;;;5074718;28;20380;-86
2021/07/20 02:42:58;;;;;;;7.68;5.70;;;;;;;;;;5093698;28;20368;-85
2021/07/20 02:45:24;;;;;;;7.07;6.03;;;;;;;;;;5094341;28;20376;-86
2021/07/20 02:47:51;;;;;;;7.23;6.37;;;;;;;;;;5092195;28;20421;-86
2021/07/20 02:50:17;;;;;;;7.20;5.72;;;;;;;;;;5073171;28;20395;-87
2021/07/20 02:52:45;;;;;;;9.38;6.63;;;;;;;;;;5073983;28;20373;-86
2021/07/20 02:55:13;;;;;;;7.93;5.73;;;;;;;;;;5091615;28;20388;-86
2021/07/20 02:57:40;;;;;;;10.13;6.00;;;;;;;;;;5092544;28;20396;-85
2021/07/20 03:00:07;;;;;;;8.25;6.13;;;;;;;;;;5092018;28;20727;-86
2021/07/20 03:02:38;;;;;;;6.57;5.68;;;;;;;;;;5073424;28;20715;-85
2021/07/20 03:05:05;;;;;;;8.13;5.77;;;;;;;;;;5074315;28;20380;-85
2021/07/20 03:07:32;;;;;;;7.57;5.77;;;;;;;;;;5074061;28;20368;-86
2021/07/20 03:10:00;;;;;;;8.97;5.40;;;;;;;;;;5074854;28;20919;-85
2021/07/20 03:12:28;;;;;;;7.38;5.97;;;;;;;;;;5093328;28;20746;-86
2021/07/20 03:14:55;;;;;;;7.67;6.30;;;;;;;;;;5073227;28;20373;-86
2021/07/20 03:17:22;;;;;;;8.13;5.93;;;;;;;;;;5073891;28;20377;-86
2021/07/20 03:19:49;;;;;;;6.20;5.43;;;;;;;;;;5074934;28;20800;-85
2021/07/20 03:22:15;;;;;;;9.65;6.07;;;;;;;;;;5074701;28;20372;-86
2021/07/20 03:24:43;;;;;;;8.02;6.05;;;;;;;;;;5092857;28;20383;-85
2021/07/20 03:27:10;;;;;;;6.95;5.93;;;;;;;;;;5074137;28;20377;-85
2021/07/20 03:29:42;;;;;;;10.88;6.18;;;;;;;;;;5092793;28;20376;-86
2021/07/20 03:32:12;;;;;;;7.72;6.32;;;;;;;;;;5073419;28;20733;-86
2021/07/20 03:34:39;;;;;;;6.50;5.90;;;;;;;;;;5073601;28;20410;-86
2021/07/20 03:37:05;;;;;;;7.55;6.00;;;;;;;;;;5092591;28;20420;-86
2021/07/20 03:39:31;;;;;;;8.30;6.27;;;;;;;;;;5092713;28;20889;-85
2021/07/20 03:41:58;;;;;;;8.43;6.10;;;;;;;;;;5074495;28;20433;-86
2021/07/20 03:44:25;;;;;;;7.47;5.80;;;;;;;;;;5074453;28;20452;-87
2021/07/20 03:46:51;;;;;;;8.40;5.53;;;;;;;;;;5073865;28;20462;-86
2021/07/20 03:49:17;;;;;;;9.65;5.60;;;;;;;;;;5073148;28;20398;-85
2021/07/20 03:51:43;;;;;;;8.13;5.72;;;;;;;;;;5093146;28;20467;-87
2021/07/20 03:54:11;;;;;;;7.90;5.95;;;;;;;;;;5092384;28;20365;-86
2021/07/20 03:56:40;;;;;;;8.25;5.93;;;;;;;;;;5092567;28;20383;-86
2021/07/20 03:59:08;;;;;;;7.70;6.20;;;;;;;;;;5093150;28;20545;-86
2021/07/20 04:01:36;;;;;;;14.43;6.43;;;;;;;;;;5074804;28;20376;-86
2021/07/20 04:04:02;;;;;;;9.82;6.13;;;;;;;;;;5073315;28;20369;-86
2021/07/20 04:06:29;;;;;;;9.15;5.68;;;;;;;;;;5074262;28;20368;-85
2021/07/20 04:08:56;;;;;;;9.00;5.95;;;;;;;;;;5073929;28;20418;-85
2021/07/20 04:11:22;;;;;;;11.02;6.35;;;;;;;;;;5093128;28;20467;-85
2021/07/20 04:13:49;;;;;;;7.05;5.65;;;;;;;;;;5074739;28;20375;-87
2021/07/20 04:16:16;;;;;;;8.60;5.57;;;;;;;;;;5073387;28;20372;-86
2021/07/20 04:18:42;;;;;;;7.22;6.07;;;;;;;;;;5090870;28;20400;-85
2021/07/20 04:21:09;;;;;;;7.22;5.55;;;;;;;;;;5074942;28;20384;-86
2021/07/20 04:23:35;;;;;;;8.50;5.80;;;;;;;;;;5092504;28;20375;-86
2021/07/20 04:26:01;;;;;;;7.55;6.45;;;;;;;;;;5092843;28;20419;-86
2021/07/20 04:28:28;;;;;;;9.70;6.18;;;;;;;;;;5073958;28;20376;-86
2021/07/20 04:30:54;;;;;;;8.40;5.80;;;;;;;;;;5074168;28;20373;-86
2021/07/20 04:33:25;;;;;;;15.00;6.20;;;;;;;;;;5074291;28;20404;-85
2021/07/20 04:35:51;;;;;;;9.25;5.90;;;;;;;;;;5073392;28;20376;-87
2021/07/20 04:38:17;;;;;;;12.23;6.10;;;;;;;;;;5074210;28;20479;-86
2021/07/20 04:40:43;;;;;;;14.13;6.55;;;;;;;;;;5076720;28;20407;-86
2021/07/20 04:43:11;;;;;;;14.85;6.60;;;;;;;;;;5078588;28;20372;-86
2021/07/20 04:45:39;;;;;;;16.60;6.93;;;;;;;;;;5061521;28;20377;-86
2021/07/20 04:48:07;;;;;;;12.82;6.35;;;;;;;;;;5078230;28;20376;-87
2021/07/20 04:50:33;;;;;;;16.40;6.45;;;;;;;;;;5094871;28;20455;-85
2021/07/20 04:53:00;;;;;;;12.25;5.28;;;;;;;;;;5096933;28;20842;-85
2021/07/20 04:55:27;;;;;;;10.80;5.90;;;;;;;;;;5076042;28;20408;-85
2021/07/20 04:57:55;;;;;;;9.73;5.20;;;;;;;;;;5095054;28;20430;-86
2021/07/20 05:00:21;;;;;;;9.02;5.53;;;;;;;;;;5078267;28;20372;-86
2021/07/20 05:02:48;;;;;;;8.45;5.32;;;;;;;;;;5076646;28;20372;-87
2021/07/20 05:05:15;;;;;;;8.60;5.47;;;;;;;;;;5076461;28;20874;-86
2021/07/20 05:07:42;;;;;;;8.82;5.25;;;;;;;;;;5076688;28;20380;-87
2021/07/20 05:10:11;;;;;;;7.75;4.53;;;;;;;;;;5077845;28;20377;-86
2021/07/20 05:12:37;;;;;;;8.88;5.57;;;;;;;;;;5076538;28;20433;-88
2021/07/20 05:15:03;;;;;;;9.55;4.88;;;;;;;;;;5095662;28;20369;-84
2021/07/20 05:17:30;;;;;;;7.55;5.22;;;;;;;;;;5076588;28;20885;-85
2021/07/20 05:19:56;;;;;;;8.60;5.00;;;;;;;;;;5075673;28;20926;-86
2021/07/20 05:22:23;;;;;;;7.88;4.80;;;;;;;;;;5076057;28;20379;-85
2021/07/20 05:24:49;;;;;;;7.75;4.95;;;;;;;;;;5076957;28;20360;-84
2021/07/20 05:27:15;;;;;;;7.47;4.47;;;;;;;;;;5076423;28;20503;-86
2021/07/20 05:29:46;;;;;;;9.38;4.70;;;;;;;;;;5076832;28;20364;-85
2021/07/20 05:32:16;;;;;;;7.57;4.45;;;;;;;;;;5078165;28;20862;-86
2021/07/20 05:34:43;;;;;;;7.65;4.28;;;;;;;;;;5095150;28;20400;-87
2021/07/20 05:37:10;;;;;;;7.43;4.40;;;;;;;;;;5094294;28;20384;-87
2021/07/20 05:39:37;;;;;;;6.72;4.38;;;;;;;;;;5076800;28;20501;-89
2021/07/20 05:42:04;;;;;;;8.43;4.50;;;;;;;;;;5077991;28;20443;-90
2021/07/20 05:44:31;;;;;;;8.05;4.60;;;;;;;;;;5076454;28;20447;-87
2021/07/20 05:46:58;;;;;;;7.75;4.20;;;;;;;;;;5096261;28;20376;-86
2021/07/20 05:49:24;;;;;;;7.78;4.22;;;;;;;;;;5096162;28;20514;-86
2021/07/20 05:51:51;;;;;;;7.47;4.35;;;;;;;;;;5095118;28;20407;-87
2021/07/20 05:54:18;;;;;;;8.25;4.70;;;;;;;;;;5096124;28;20372;-88
2021/07/20 05:56:44;;;;;;;6.72;4.38;;;;;;;;;;5095400;28;20372;-86
2021/07/20 05:59:10;;;;;;;8.43;4.70;;;;;;;;;;5076428;28;20401;-87
2021/07/20 06:01:38;;;;;;;7.25;3.90;;;;;;;;;;5077059;28;20382;-86
2021/07/20 06:04:04;;;;;;;7.80;4.75;;;;;;;;;;5102081;28;20449;-86
2021/07/20 06:06:31;;;;;;;10.40;4.47;;;;;;;;;;5087419;28;20391;-87
2021/07/20 06:09:03;;;;;;;7.60;4.18;;;;;;;;;;5109422;28;20370;-86
2021/07/20 06:11:31;;;;;;;7.35;4.03;;;;;;;;;;5104109;28;20384;-87
2021/07/20 06:13:58;;;;;;;5.43;4.00;;;;;;;;;;5082600;28;20360;-90
2021/07/20 06:16:26;;;;;;;7.82;3.95;;;;;;;;;;5081638;28;20459;-85
2021/07/20 06:18:53;;;;;;;8.57;4.00;;;;;;;;;;5073507;28;20408;-87
2021/07/20 06:21:20;;;;;;;5.40;3.83;;;;;;;;;;5091050;28;20396;-86
2021/07/20 06:23:49;;;;;;;7.45;4.00;;;;;;;;;;5073404;28;20376;-88
2021/07/20 06:26:19;;;;;;;7.65;3.58;;;;;;;;;;5073581;28;20408;-86
2021/07/20 06:28:46;;;;;;;9.80;3.83;;;;;;;;;;5073822;28;20375;-87
2021/07/20 06:31:16;;;;;;;6.10;3.85;;;;;;;;;;5092131;28;20425;-87
2021/07/20 06:33:42;;;;;;;5.47;3.90;;;;;;;;;;5074110;28;20405;-87
2021/07/20 06:36:08;;;;;;;9.05;3.65;;;;;;;;;;5092281;28;20372;-87
2021/07/20 06:38:34;;;;;;;7.97;3.50;;;;;;;;;;5073762;28;20411;-87
2021/07/20 06:41:01;;;;;;;7.30;4.10;;;;;;;;;;5073832;28;20380;-86
2021/07/20 06:43:27;;;;;;;7.30;4.43;;;;;;;;;;5073727;28;20765;-85
2021/07/20 06:45:53;;;;;;;8.05;3.60;;;;;;;;;;5073561;28;20368;-86
2021/07/20 06:48:20;;;;;;;8.80;3.80;;;;;;;;;;5073938;28;20371;-87
2021/07/20 06:50:47;;;;;;;5.93;3.70;;;;;;;;;;5073879;28;20371;-85
2021/07/20 06:53:13;;;;;;;9.55;3.97;;;;;;;;;;5074294;28;20372;-86
2021/07/20 06:55:49;;;;;;;7.03;4.15;;;;;;;;;;5091570;28;20388;-87
2021/07/20 06:58:17;;;;;;;8.80;3.83;;;;;;;;;;5091628;28;20392;-87
2021/07/20 07:00:47;;;;;;;9.10;3.70;;;;;;;;;;5073097;28;20381;-86
2021/07/20 07:03:15;;;;;;;5.90;3.05;;;;;;;;;;5074157;28;20376;-87
2021/07/20 07:05:41;;;;;;;7.03;3.50;;;;;;;;;;5073302;28;20368;-86
2021/07/20 07:08:08;;;;;;;6.83;3.47;;;;;;;;;;5073706;28;20410;-87
2021/07/20 07:10:35;;;;;;;5.63;3.00;;;;;;;;;;5073462;28;20387;-90
2021/07/20 07:13:07;;;;;;;7.57;3.10;;;;;;;;;;5073395;28;20452;-85
2021/07/20 07:15:33;;;;;;;8.77;3.37;;;;;;;;;;5072806;28;20376;-86
2021/07/20 07:17:59;;;;;;;7.93;3.37;;;;;;;;;;5072692;28;20475;-86
2021/07/20 07:20:27;;;;;;;6.70;3.35;;;;;;;;;;5072533;28;20808;-84
2021/07/20 07:22:54;;;;;;;5.05;3.20;;;;;;;;;;5072657;28;20364;-83
2021/07/20 07:25:20;;;;;;;6.25;3.10;;;;;;;;;;5072897;28;20769;-85
2021/07/20 07:27:47;;;;;;;5.00;3.42;;;;;;;;;;5091170;28;20365;-85
2021/07/20 07:30:14;;;;;;;7.63;3.47;;;;;;;;;;5073145;28;20870;-83
2021/07/20 07:32:40;;;;;;;19.85;4.80;;;;;;;;;;5073185;28;20370;-88
2021/07/20 07:35:06;;;;;;;8.35;3.38;;;;;;;;;;5072390;28;20428;-85
2021/07/20 07:37:33;;;;;;;5.85;2.80;;;;;;;;;;5085791;28;20793;-85
2021/07/20 07:40:00;;;;;;;7.53;3.47;;;;;;;;;;5092612;28;20381;-88
2021/07/20 07:42:28;;;;;;;5.70;3.10;;;;;;;;;;5102508;28;20363;-87
2021/07/20 07:44:55;;;;;;;6.63;3.80;;;;;;;;;;5093420;28;20367;-86
2021/07/20 07:47:23;;;;;;;8.25;3.92;;;;;;;;;;5092995;28;20923;-87
2021/07/20 07:49:50;;;;;;;9.73;4.30;;;;;;;;;;5093487;28;20424;-85
2021/07/20 07:52:16;;;;;;;8.45;4.30;;;;;;;;;;5092946;28;20386;-87
2021/07/20 07:54:44;;;;;;;8.57;4.40;;;;;;;;;;5100796;28;20373;-85
2021/07/20 07:57:11;;;;;;;7.43;3.87;;;;;;;;;;5082839;28;20453;-86
2021/07/20 07:59:39;;;;;;;10.10;4.23;;;;;;;;;;5101251;28;20410;-84
2021/07/20 08:02:06;;;;;;;6.17;3.93;;;;;;;;;;5083261;28;20405;-87
2021/07/20 08:04:34;;;;;;;6.60;3.20;;;;;;;;;;5082088;28;20381;-89
2021/07/20 08:07:01;;;;;;;5.68;3.35;;;;;;;;;;5082380;28;20457;-86
2021/07/20 08:09:30;;;;;;;4.68;3.17;;;;;;;;;;5083115;28;20942;-86
2021/07/20 08:11:57;;;;;;;5.75;3.30;;;;;;;;;;5100893;28;20376;-85
2021/07/20 08:14:23;;;;;;;4.50;3.05;;;;;;;;;;5083077;28;20392;-88
2021/07/20 08:16:50;;;;;;;5.22;3.08;;;;;;;;;;5104468;28;20460;-87
2021/07/20 08:19:19;;;;;;;3.67;2.70;;;;;;;;;;5087023;28;20494;-83
2021/07/20 08:21:45;;;;;;;5.28;3.10;;;;;;;;;;5095782;27;20725;-86
2021/07/20 08:24:12;;;;;;;3.95;2.53;;;;;;;;;;5102755;28;20558;-87
2021/07/20 08:26:50;;;;;;;4.45;2.50;;;;;;;;;;5087721;28;20386;-89
2021/07/20 08:29:17;;;;;;;4.45;2.83;;;;;;;;;;5104172;28;20431;-86
2021/07/20 08:31:45;;;;;;;5.75;3.33;;;;;;;;;;5103948;28;20378;-84
2021/07/20 08:34:12;;;;;;;3.92;2.90;;;;;;;;;;5091022;27;20378;-85
2021/07/20 08:36:39;;;;;;;6.28;3.33;;;;;;;;;;5098783;28;20403;-87
2021/07/20 08:39:07;;;;;;;4.40;3.13;;;;;;;;;;5083106;28;20414;-86
2021/07/20 08:41:39;;;;;;;5.55;2.90;;;;;;;;;;5087271;27;20402;-86
2021/07/20 08:44:17;;;;;;;6.53;3.47;;;;;;;;;;5096505;28;20375;-87
2021/07/20 08:46:43;;;;;;;7.57;3.28;;;;;;;;;;5089683;28;20795;-85
2021/07/20 08:49:36;;;;;;;9.90;3.55;;;;;;;;;;5091869;27;20365;-87
2021/07/20 08:52:05;;;;;;;8.52;2.95;;;;;;;;;;5094409;28;20870;-87
2021/07/20 08:54:36;;;;;;;7.25;2.80;;;;;;;;;;5087030;28;20916;-84
2021/07/20 08:57:04;;;;;;;4.85;2.70;;;;;;;;;;5086659;27;20380;-88
2021/07/20 08:59:49;;;;;;;7.38;2.55;;;;;;;;;;5103339;27;20398;-84
2021/07/20 09:02:30;;;;;;;6.40;2.72;;;;;;;;;;5104895;27;20396;-87
2021/07/20 09:05:03;;;;;;;6.43;3.07;;;;;;;;;;5104160;27;20418;-85
2021/07/20 09:07:33;;;;;;;4.70;2.90;;;;;;;;;;5085486;28;20375;-91
2021/07/20 09:10:00;;;;;;;6.88;3.10;;;;;;;;;;5104301;27;20735;-86
2021/07/20 09:12:31;;;;;;;6.03;2.85;;;;;;;;;;5086057;28;20389;-84
2021/07/20 09:14:58;;;;;;;6.65;3.00;;;;;;;;;;5091610;27;20377;-85
2021/07/20 09:17:33;;;;;;;8.10;2.60;;;;;;;;;;5095223;27;20386;-85
2021/07/20 09:20:10;;;;;;;6.78;2.95;;;;;;;;;;5085220;28;20381;-86
2021/07/20 09:22:42;;;;;;;5.63;2.80;;;;;;;;;;5087098;27;20467;-87
2021/07/20 09:25:11;;;;;;;6.07;3.03;;;;;;;;;;5085273;28;20414;-85
2021/07/20 09:27:37;;;;;;;10.10;3.53;;;;;;;;;;5085096;28;20410;-84
2021/07/20 09:30:06;;;;;;;8.07;3.20;;;;;;;;;;5103028;28;20465;-85
2021/07/20 09:32:39;;;;;;;8.00;3.20;;;;;;;;;;5101596;28;20361;-88
2021/07/20 09:35:08;;;;;;;11.07;3.63;;;;;;;;;;5103635;28;21782;-86
2021/07/20 09:37:53;;;;;;;7.28;3.38;;;;;;;;;;5103676;28;20371;-89
2021/07/20 09:40:19;;;;;;;9.13;3.42;;;;;;;;;;5092651;28;20382;-86
2021/07/20 09:42:45;;;;;;;5.22;3.10;;;;;;;;;;5084561;28;20864;-87
2021/07/20 09:45:25;;;;;;;6.82;3.03;;;;;;;;;;5088593;28;20979;-88
2021/07/20 09:47:51;;;;;;;6.18;2.60;;;;;;;;;;5085563;28;20364;-87
2021/07/20 09:50:18;;;;;;;7.22;2.80;;;;;;;;;;5083007;28;20379;-86
2021/07/20 09:53:02;;;;;;;5.80;2.78;;;;;;;;;;5080079;28;20726;-85
2021/07/20 09:55:37;;;;;;;5.85;2.70;;;;;;;;;;5105445;28;20873;-88
2021/07/20 09:58:23;;;;;;;6.97;2.85;;;;;;;;;;5085588;28;20402;-87
2021/07/20 10:01:02;;;;;;;6.40;2.90;;;;;;;;;;5092615;28;20371;-85
2021/07/20 10:03:46;;;;;;;4.90;2.90;;;;;;;;;;5101674;27;20655;-89
2021/07/20 10:06:35;;;;;;;5.03;2.60;;;;;;;;;;5085656;28;20856;-85
2021/07/20 10:09:02;;;;;;;5.97;2.67;;;;;;;;;;5102570;28;20383;-85
2021/07/20 10:11:48;;;;;;;6.28;2.50;;;;;;;;;;5101577;28;20455;-87
2021/07/20 10:14:33;;;;;;;8.30;2.90;;;;;;;;;;5102315;28;20422;-87
2021/07/20 10:17:30;;;;;;;5.40;2.77;;;;;;;;;;5103567;27;20360;-85
2021/07/20 10:20:13;;;;;;;4.78;2.95;;;;;;;;;;5069728;28;20391;-88
2021/07/20 10:23:02;;;;;;;6.43;3.05;;;;;;;;;;5088560;28;20386;-85
2021/07/20 10:25:33;;;;;;;5.10;2.90;;;;;;;;;;5078921;28;20373;-86
2021/07/20 10:28:19;;;;;;;6.72;3.40;;;;;;;;;;5082381;28;20377;-86
2021/07/20 10:30:50;;;;;;;7.22;3.28;;;;;;;;;;5101695;28;20366;-88
2021/07/20 10:33:29;;;;;;;5.97;3.05;;;;;;;;;;5082510;28;20377;-85
2021/07/20 10:36:10;;;;;;;6.40;3.42;;;;;;;;;;5080888;28;20373;-86
2021/07/20 10:38:48;;;;;;;7.28;3.55;;;;;;;;;;5083353;28;20449;-86
2021/07/20 10:41:16;;;;;;;7.78;3.55;;;;;;;;;;5101177;28;20424;-84
2021/07/20 10:44:02;;;;;;;7.88;3.53;;;;;;;;;;5080806;28;20378;-84
2021/07/20 10:46:31;;;;;;;7.95;3.33;;;;;;;;;;5099980;28;20368;-85
2021/07/20 10:49:01;;;;;;;6.80;2.97;;;;;;;;;;5100993;28;20761;-90
2021/07/20 10:51:29;;;;;;;6.50;3.10;;;;;;;;;;5082390;28;20375;-87
2021/07/20 10:54:09;;;;;;;6.43;2.90;;;;;;;;;;5083086;28;20380;-85
2021/07/20 10:56:41;;;;;;;7.22;2.88;;;;;;;;;;5082635;28;20384;-87
2021/07/20 10:59:29;;;;;;;5.63;2.80;;;;;;;;;;5083319;28;20439;-86
2021/07/20 11:02:18;;;;;;;5.90;2.53;;;;;;;;;;5083351;28;20388;-85
2021/07/20 11:04:53;;;;;;;5.43;2.70;;;;;;;;;;5101334;28;20840;-83
2021/07/20 11:07:25;;;;;;;4.70;2.40;;;;;;;;;;5082726;28;20387;-90
2021/07/20 11:09:52;;;;;;;3.75;2.55;;;;;;;;;;5082049;28;20412;-87
2021/07/20 11:12:20;;;;;;;7.20;2.75;;;;;;;;;;5099177;28;20798;-87
2021/07/20 11:14:49;;;;;;;3.97;2.58;;;;;;;;;;5081319;28;20372;-83
2021/07/20 11:17:17;;;;;;;9.57;2.80;;;;;;;;;;5083033;28;20408;-85
2021/07/20 11:19:44;;;;;;;6.85;2.80;;;;;;;;;;5102320;28;20395;-85
2021/07/20 11:22:11;;;;;;;5.07;2.80;;;;;;;;;;5104402;28;20382;-86
2021/07/20 11:24:37;;;;;;;4.90;2.80;;;;;;;;;;5081945;28;20377;-85
2021/07/20 11:27:04;;;;;;;3.88;2.80;;;;;;;;;;5083775;28;20443;-84
2021/07/20 11:29:31;;;;;;;5.50;3.22;;;;;;;;;;5090257;28;20375;-82
2021/07/20 11:32:03;;;;;;;6.68;3.00;;;;;;;;;;5108262;28;20469;-84
2021/07/20 11:34:35;;;;;;;4.05;2.60;;;;;;;;;;5088425;28;20385;-85
2021/07/20 11:37:03;;;;;;;4.93;3.00;;;;;;;;;;5091322;27;20494;-83
2021/07/20 11:39:31;;;;;;;5.15;2.90;;;;;;;;;;5104132;27;20404;-87
2021/07/20 11:42:24;;;;;;;5.30;2.95;;;;;;;;;;5082060;28;20732;-86
2021/07/20 11:45:02;;;;;;;4.73;3.20;;;;;;;;;;5076192;28;20395;-85
2021/07/20 11:47:40;;;;;;;4.05;2.92;;;;;;;;;;5077185;28;20377;-85
2021/07/20 11:50:12;;;;;;;4.32;2.80;;;;;;;;;;5088564;28;20909;-85
2021/07/20 11:53:01;;;;;;;5.50;3.20;;;;;;;;;;5085849;28;20900;-87
2021/07/20 11:55:48;;;;;;;5.18;3.30;;;;;;;;;;5075618;28;20375;-87
2021/07/20 11:58:33;;;;;;;5.70;3.90;;;;;;;;;;5084106;28;20409;-85
2021/07/20 12:01:18;;;;;;;6.90;3.60;;;;;;;;;;5084542;28;20435;-87
2021/07/20 12:04:03;;;;;;;6.10;3.95;;;;;;;;;;5091934;28;20785;-87
2021/07/20 12:06:34;;;;;;;8.55;4.18;;;;;;;;;;5107325;28;20388;-86
2021/07/20 12:09:19;;;;;;;8.82;4.25;;;;;;;;;;5080902;28;20385;-88
2021/07/20 12:11:47;;;;;;;6.65;4.30;;;;;;;;;;5091406;28;20371;-86
2021/07/20 12:14:13;;;;;;;11.55;4.90;;;;;;;;;;5105969;28;20766;-86
2021/07/20 12:16:41;;;;;;;8.05;4.80;;;;;;;;;;5105195;28;20372;-86
2021/07/20 12:19:07;;;;;;;9.55;5.03;;;;;;;;;;5081031;28;20932;-86
2021/07/20 12:21:34;;;;;;;8.82;5.20;;;;;;;;;;5080937;28;20388;-87
2021/07/20 12:24:05;;;;;;;8.82;4.57;;;;;;;;;;5081240;28;20381;-86
2021/07/20 12:26:31;;;;;;;7.53;4.13;;;;;;;;;;5082571;28;20715;-86
2021/07/20 12:28:57;;;;;;;6.78;4.35;;;;;;;;;;5099309;28;21003;-86
2021/07/20 12:31:29;;;;;;;7.05;4.60;;;;;;;;;;5103706;28;20418;-88
2021/07/20 12:33:56;;;;;;;7.40;6.13;;;;;;;;;;5084462;28;20388;-87
2021/07/20 12:36:23;;;;;;;7.20;4.07;;;;;;;;;;5082776;28;20376;-86
2021/07/20 12:39:05;;;;;;;7.50;4.60;;;;;;;;;;5100077;28;20398;-90
2021/07/20 12:41:32;;;;;;;6.22;4.18;;;;;;;;;;5083941;27;20367;-88
2021/07/20 12:43:58;;;;;;;6.00;4.37;;;;;;;;;;5118722;27;20386;-88
2021/07/20 12:46:28;;;;;;;8.07;4.47;;;;;;;;;;5085745;28;20379;-86
2021/07/20 12:48:55;;;;;;;4.70;4.20;;;;;;;;;;5101412;28;20407;-85
2021/07/20 12:51:23;;;;;;;5.35;4.30;;;;;;;;;;5083394;28;20364;-88
2021/07/20 12:53:50;;;;;;;7.93;4.38;;;;;;;;;;5102303;28;20367;-87
2021/07/20 12:56:24;;;;;;;8.15;4.20;;;;;;;;;;5085383;28;20381;-86
2021/07/20 12:58:51;;;;;;;8.50;4.00;;;;;;;;;;5086735;28;20407;-87
2021/07/20 13:01:18;;;;;;;6.95;4.22;;;;;;;;;;5103540;28;20465;-83
2021/07/20 13:03:48;;;;;;;8.18;4.35;;;;;;;;;;5098480;27;20499;-86
2021/07/20 13:06:14;;;;;;;12.88;4.03;;;;;;;;;;5101483;28;20384;-88
2021/07/20 13:08:41;;;;;;;6.28;3.60;;;;;;;;;;5081890;28;20378;-87
2021/07/20 13:11:09;;;;;;;22.95;5.78;;;;;;;;;;5114646;27;20374;-87
2021/07/20 13:13:36;;;;;;;6.88;3.50;;;;;;;;;;5099061;27;20487;-86
2021/07/20 13:16:05;;;;;;;5.63;3.85;;;;;;;;;;5091671;28;20451;-86
2021/07/20 13:18:31;;;;;;;7.35;3.85;;;;;;;;;;5092990;27;20450;-86
2021/07/20 13:20:58;;;;;;;6.30;3.90;;;;;;;;;;5108288;28;20443;-88
2021/07/20 13:23:28;;;;;;;7.82;3.75;;;;;;;;;;5099978;28;20380;-85
2021/07/20 13:25:54;;;;;;;6.47;3.60;;;;;;;;;;5079030;28;20383;-83
2021/07/20 13:28:23;;;;;;;4.88;3.40;;;;;;;;;;5084350;28;20522;-86
2021/07/20 13:30:56;;;;;;;5.07;3.22;;;;;;;;;;5082813;28;20372;-87
2021/07/20 13:33:24;;;;;;;5.63;3.30;;;;;;;;;;5106112;27;20427;-87
2021/07/20 13:35:55;;;;;;;6.00;3.42;;;;;;;;;;5099698;28;20390;-87
2021/07/20 13:38:21;;;;;;;6.70;3.47;;;;;;;;;;5080199;28;20420;-88
2021/07/20 13:40:47;;;;;;;7.72;3.38;;;;;;;;;;5099145;28;20370;-87
2021/07/20 13:43:13;;;;;;;6.03;3.30;;;;;;;;;;5103260;28;20359;-87
2021/07/20 13:45:39;;;;;;;5.25;3.45;;;;;;;;;;5103467;28;20874;-84
2021/07/20 13:48:09;;;;;;;5.75;3.42;;;;;;;;;;5102456;28;20725;-89
2021/07/20 13:50:35;;;;;;;8.15;3.60;;;;;;;;;;5105070;27;20366;-86
2021/07/20 13:53:09;;;;;;;5.90;3.55;;;;;;;;;;5086012;28;20412;-90
2021/07/20 13:55:40;;;;;;;5.80;3.40;;;;;;;;;;5105873;27;20367;-86
2021/07/20 13:58:08;;;;;;;6.63;3.40;;;;;;;;;;5088811;27;20817;-88
2021/07/20 14:00:34;;;;;;;5.22;3.40;;;;;;;;;;5086660;28;20367;-88
2021/07/20 14:03:00;;;;;;;7.60;3.75;;;;;;;;;;5084728;28;20380;-89
2021/07/20 14:05:27;;;;;;;6.63;3.88;;;;;;;;;;5084445;28;20382;-87
2021/07/20 14:07:53;;;;;;;6.93;3.90;;;;;;;;;;5104514;27;20424;-86
2021/07/20 14:10:19;;;;;;;6.53;3.93;;;;;;;;;;5084764;28;20382;-84
2021/07/20 14:12:46;;;;;;;8.33;3.60;;;;;;;;;;5104892;28;20438;-84
2021/07/20 14:15:13;;;;;;;20.30;5.20;;;;;;;;;;5107764;27;20370;-88
2021/07/20 14:17:40;;;;;;;8.57;3.88;;;;;;;;;;5106941;28;20366;-92
2021/07/20 14:20:10;;;;;;;8.82;3.90;;;;;;;;;;5074808;28;20415;-87
2021/07/20 14:22:39;;;;;;;7.78;3.83;;;;;;;;;;5077298;28;20368;-86
2021/07/20 14:25:06;;;;;;;7.00;3.78;;;;;;;;;;5082470;28;20379;-87
2021/07/20 14:27:32;;;;;;;6.10;3.40;;;;;;;;;;5084775;28;20717;-88
2021/07/20 14:29:58;;;;;;;6.67;3.47;;;;;;;;;;5076063;28;20384;-87
2021/07/20 14:32:26;;;;;;;7.38;3.40;;;;;;;;;;5075942;27;20380;-86
2021/07/20 14:34:53;;;;;;;6.00;3.38;;;;;;;;;;5077995;28;20359;-87
2021/07/20 14:37:39;;;;;;;5.88;3.35;;;;;;;;;;5074527;28;20372;-87
2021/07/20 14:40:11;;;;;;;6.53;3.50;;;;;;;;;;5098363;28;20487;-88
2021/07/20 14:42:40;;;;;;;5.00;3.53;;;;;;;;;;5090081;28;20376;-86
2021/07/20 14:45:11;;;;;;;8.68;3.28;;;;;;;;;;5075976;28;20382;-86
2021/07/20 14:47:57;;;;;;;6.90;3.60;;;;;;;;;;5098896;28;20791;-85
2021/07/20 14:50:39;;;;;;;5.63;3.42;;;;;;;;;;5079795;28;20448;-85
2021/07/20 14:53:08;;;;;;;6.72;3.53;;;;;;;;;;5104796;28;20375;-87
2021/07/20 14:55:42;;;;;;;6.88;3.70;;;;;;;;;;5090917;28;20411;-89
2021/07/20 14:58:25;;;;;;;8.77;3.35;;;;;;;;;;5079003;28;20513;-90